createdAt,value
2023-04-13T00:03:10.229Z,33.83
2023-04-13T00:08:35.644Z,32.93
2023-04-13T00:13:59.461Z,31.47
2023-04-13T00:19:22.157Z,32.30
2023-04-13T00:24:44.593Z,34.07
2023-04-13T00:30:07.856Z,33.35
2023-04-13T00:35:32.857Z,32.47
2023-04-13T00:40:56.046Z,35.13
2023-04-13T00:46:20.683Z,33.60
2023-04-13T00:51:43.052Z,35.20
2023-04-13T00:57:05.881Z,35.40
2023-04-13T01:02:30.041Z,37.23
2023-04-13T01:08:15.983Z,31.97
2023-04-13T01:14:01.333Z,34.30
2023-04-13T01:19:28.278Z,32.83
2023-04-13T01:25:11.564Z,33.85
2023-04-13T01:30:38.164Z,37.97
2023-04-13T01:36:02.474Z,38.45
2023-04-13T01:41:25.873Z,35.60
2023-04-13T01:46:51.339Z,35.40
2023-04-13T01:52:15.192Z,39.65
2023-04-13T01:57:38.644Z,33.10
2023-04-13T02:03:01.059Z,35.37
2023-04-13T02:08:24.537Z,36.80
2023-04-13T02:13:47.695Z,34.67
2023-04-13T02:19:11.193Z,35.47
2023-04-13T02:24:34.763Z,33.05
2023-04-13T02:29:57.149Z,33.92
2023-04-13T02:35:22.762Z,33.28
2023-04-13T02:40:45.025Z,35.10
2023-04-13T02:46:09.721Z,34.80
2023-04-13T02:51:34.680Z,34.38
2023-04-13T02:57:01.064Z,35.90
2023-04-13T03:02:27.657Z,35.50
2023-04-13T03:07:52.677Z,36.67
2023-04-13T03:13:16.499Z,37.80
2023-04-13T03:18:38.855Z,36.13
2023-04-13T03:24:05.840Z,37.05
2023-04-13T03:29:30.026Z,35.90
2023-04-13T03:34:54.659Z,37.43
2023-04-13T03:40:19.676Z,36.15
2023-04-13T03:45:44.392Z,40.50
2023-04-13T03:51:07.582Z,36.58
2023-04-13T03:56:29.982Z,35.60
2023-04-13T04:01:55.385Z,37.50
2023-04-13T04:07:18.125Z,35.07
2023-04-13T04:12:40.416Z,35.63
2023-04-13T04:18:05.370Z,32.60
2023-04-13T04:23:29.111Z,34.97
2023-04-13T04:28:52.797Z,38.47
2023-04-13T04:34:17.352Z,42.05
2023-04-13T04:39:42.928Z,41.70
2023-04-13T04:45:07.563Z,38.48
2023-04-13T04:50:33.667Z,40.40
2023-04-13T04:55:56.264Z,39.25
2023-04-13T05:01:22.096Z,36.80
2023-04-13T05:06:47.094Z,38.50
2023-04-13T05:12:11.915Z,32.83
2023-04-13T05:17:37.159Z,39.92
2023-04-13T05:23:00.176Z,34.75
2023-04-13T05:28:24.981Z,34.60
2023-04-13T05:33:48.281Z,33.63
2023-04-13T05:39:12.161Z,32.33
2023-04-13T05:44:36.217Z,32.97
2023-04-13T05:49:59.409Z,32.78
2023-04-13T05:55:24.017Z,33.55
2023-04-13T06:00:47.725Z,31.87
2023-04-13T06:06:10.918Z,30.10
2023-04-13T06:11:34.080Z,28.80
2023-04-13T06:16:56.955Z,27.22
2023-04-13T06:22:22.449Z,30.53
2023-04-13T06:27:47.024Z,33.42
2023-04-13T06:33:09.435Z,31.33
2023-04-13T06:38:35.032Z,31.05
2023-04-13T06:43:58.557Z,34.40
2023-04-13T06:49:23.098Z,30.05
2023-04-13T06:54:48.419Z,30.50
2023-04-13T07:00:22.282Z,27.32
2023-04-13T07:05:35.833Z,33.67
2023-04-13T07:10:59.913Z,28.93
2023-04-13T07:16:24.869Z,30.02
2023-04-13T07:21:49.107Z,29.25
2023-04-13T07:27:11.883Z,26.23
2023-04-13T07:32:38.051Z,24.90
2023-04-13T07:38:00.936Z,26.82
2023-04-13T07:43:23.316Z,24.12
2023-04-13T07:48:46.158Z,20.57
2023-04-13T07:54:10.143Z,23.80
2023-04-13T07:59:33.194Z,20.20
2023-04-13T08:04:55.766Z,20.53
2023-04-13T08:10:20.117Z,18.62
2023-04-13T08:15:43.154Z,21.23
2023-04-13T08:21:06.272Z,15.97
2023-04-13T08:26:35.880Z,12.80
2023-04-13T08:31:59.538Z,12.87
2023-04-13T08:37:22.715Z,13.10
2023-04-13T08:42:50.455Z,19.65
2023-04-13T08:48:15.994Z,11.08
2023-04-13T08:53:38.721Z,11.18
2023-04-13T09:04:44.325Z,12.67
2023-04-13T09:10:09.732Z,12.23
2023-04-13T09:15:34.644Z,10.53
2023-04-13T09:21:05.704Z,11.88
2023-04-13T09:26:52.915Z,10.40
2023-04-13T09:32:18.529Z,12.80
2023-04-13T09:43:22.487Z,9.20
2023-04-13T09:48:46.838Z,25.23
2023-04-13T09:54:10.717Z,8.73
2023-04-13T09:59:35.155Z,10.47
2023-04-13T10:05:01.322Z,11.43
2023-04-13T10:10:27.017Z,11.10
2023-04-13T10:15:59.657Z,14.00
2023-04-13T10:21:27.321Z,11.40
2023-04-13T10:26:59.114Z,10.77
2023-04-13T10:32:28.890Z,11.17
2023-04-13T10:43:10.824Z,10.72
2023-04-13T10:48:43.598Z,9.30
2023-04-13T10:54:11.102Z,9.83
2023-04-13T10:59:58.792Z,11.95
2023-04-13T11:05:24.528Z,11.07
2023-04-13T11:10:48.151Z,11.00
2023-04-13T11:16:14.951Z,10.73
2023-04-13T11:21:38.983Z,10.88
2023-04-13T11:27:02.159Z,11.27
2023-04-13T11:32:33.285Z,10.63
2023-04-13T11:38:01.932Z,10.32
2023-04-13T11:43:26.458Z,11.28
2023-04-13T11:48:49.494Z,10.23
2023-04-13T11:54:13.338Z,10.75
2023-04-13T11:59:37.117Z,9.15
2023-04-13T12:05:03.312Z,12.03
2023-04-13T12:10:38.520Z,12.70
2023-04-13T12:16:06.940Z,13.68
2023-04-13T12:21:23.478Z,13.47
2023-04-13T12:32:24.228Z,11.10
2023-04-13T12:37:48.296Z,13.87
2023-04-13T12:43:10.576Z,11.07
2023-04-13T12:48:33.003Z,13.53
2023-04-13T12:53:55.260Z,10.10
2023-04-13T12:59:18.262Z,9.60
2023-04-13T13:04:40.614Z,10.73
2023-04-13T13:10:06.229Z,9.53
2023-04-13T13:15:28.547Z,12.73
2023-04-13T13:20:52.584Z,17.35
2023-04-13T13:31:41.678Z,19.20
2023-04-13T13:37:04.223Z,21.03
2023-04-13T13:42:32.474Z,21.07
2023-04-13T13:47:58.250Z,19.52
2023-04-13T13:53:20.715Z,17.80
2023-04-13T13:58:43.298Z,20.52
2023-04-13T14:04:05.652Z,23.40
2023-04-13T14:09:28.505Z,18.45
2023-04-13T14:14:50.748Z,18.62
2023-04-13T14:20:14.282Z,16.87
2023-04-13T14:25:36.910Z,21.35
2023-04-13T14:30:59.620Z,20.53
2023-04-13T14:36:22.005Z,18.87
2023-04-13T14:41:44.333Z,17.67
2023-04-13T14:47:09.293Z,19.57
2023-04-13T14:52:32.670Z,16.55
2023-04-13T14:57:57.389Z,17.75
2023-04-13T15:03:22.301Z,17.60
2023-04-13T15:08:46.679Z,15.00
2023-04-13T15:14:09.229Z,16.07
2023-04-13T15:19:31.769Z,15.60
2023-04-13T15:24:54.497Z,15.25
2023-04-13T15:30:19.003Z,12.58
2023-04-13T15:35:42.638Z,15.63
2023-04-13T15:41:05.840Z,14.23
2023-04-13T15:46:28.372Z,13.35
2023-04-13T15:51:51.185Z,11.88
2023-04-13T15:57:13.689Z,13.53
2023-04-13T16:02:36.157Z,12.23
2023-04-13T16:07:58.828Z,15.65
2023-04-13T16:13:22.908Z,10.57
2023-04-13T16:18:45.780Z,9.68
2023-04-13T16:24:09.029Z,8.78
2023-04-13T16:29:32.887Z,10.18
2023-04-13T16:34:55.587Z,8.90
2023-04-13T16:40:19.749Z,13.30
2023-04-13T16:45:44.453Z,11.08
2023-04-13T16:51:13.542Z,13.18
2023-04-13T16:56:37.770Z,10.50
2023-04-13T17:02:00.188Z,9.13
2023-04-13T17:07:24.076Z,10.53
2023-04-13T17:12:48.726Z,11.10
2023-04-13T17:18:12.541Z,12.68
2023-04-13T17:23:35.395Z,11.73
2023-04-13T17:28:58.669Z,11.22
2023-04-13T17:34:21.831Z,12.20
2023-04-13T17:39:45.772Z,14.65
2023-04-13T17:45:08.111Z,13.65
2023-04-13T17:50:30.623Z,15.45
2023-04-13T17:55:54.594Z,13.85
2023-04-13T18:01:22.803Z,9.57
2023-04-13T18:06:45.609Z,14.23
2023-04-13T18:12:07.897Z,14.30
2023-04-13T18:17:30.162Z,14.70
2023-04-13T18:22:53.772Z,14.90
2023-04-13T18:28:16.710Z,19.65
2023-04-13T18:33:40.290Z,16.30
2023-04-13T18:39:04.674Z,15.50
2023-04-13T18:44:26.996Z,17.02
2023-04-13T18:49:49.307Z,15.18
2023-04-13T18:55:11.965Z,16.75
2023-04-13T19:00:35.282Z,15.25
2023-04-13T19:05:57.573Z,15.78
2023-04-13T19:11:20.404Z,16.42
2023-04-13T19:16:44.336Z,11.83
2023-04-13T19:22:07.197Z,16.42
2023-04-13T19:27:29.441Z,20.05
2023-04-13T19:32:54.741Z,15.10
2023-04-13T19:38:17.360Z,15.53
2023-04-13T19:43:39.623Z,16.60
2023-04-13T19:49:05.472Z,16.27
2023-04-13T19:54:28.001Z,12.70
2023-04-13T19:59:50.843Z,18.07
2023-04-13T20:05:13.691Z,17.95
2023-04-13T20:10:36.130Z,27.30
2023-04-13T20:15:58.519Z,18.65
2023-04-13T20:21:20.778Z,14.75
2023-04-13T20:26:44.253Z,15.78
2023-04-13T20:32:07.535Z,13.90
2023-04-13T20:37:29.773Z,12.90
2023-04-13T20:42:52.121Z,14.28
2023-04-13T20:53:41.814Z,16.40
2023-04-13T20:59:04.697Z,14.83
2023-04-13T21:04:27.527Z,18.62
2023-04-13T21:09:50.180Z,20.88
2023-04-13T21:15:12.799Z,19.30
2023-04-13T21:20:35.185Z,25.97
2023-04-13T21:25:57.428Z,20.50
2023-04-13T21:31:19.934Z,22.42
2023-04-13T21:42:09.463Z,18.45
2023-04-13T21:47:32.185Z,16.30
2023-04-13T21:52:54.541Z,16.25
2023-04-13T21:58:16.752Z,18.98
2023-04-13T22:03:40.891Z,16.97
2023-04-13T22:09:03.538Z,14.70
2023-04-13T22:14:26.168Z,18.05
2023-04-13T22:19:48.424Z,16.10
2023-04-13T22:25:11.096Z,18.00
2023-04-13T22:30:33.569Z,18.95
2023-04-13T22:35:55.815Z,18.12
2023-04-13T22:41:18.848Z,22.80
2023-04-13T22:46:41.326Z,24.15
2023-04-13T22:52:03.671Z,29.82
2023-04-13T22:57:26.598Z,33.23
2023-04-13T23:02:50.941Z,30.62
2023-04-13T23:08:13.578Z,33.50
2023-04-13T23:13:37.022Z,35.85
2023-04-13T23:18:59.669Z,41.08
2023-04-13T23:24:22.403Z,45.17
2023-04-13T23:29:45.991Z,44.25
2023-04-13T23:35:08.363Z,44.05
2023-04-13T23:40:30.850Z,35.52
2023-04-13T23:45:53.754Z,40.20
2023-04-13T23:51:16.228Z,39.55
2023-04-13T23:56:38.866Z,36.70
